createdAt,value
2022-08-16T00:01:14.652Z,7.85
2022-08-16T00:03:41.991Z,8.20
2022-08-16T00:06:09.992Z,9.90
2022-08-16T00:08:37.794Z,9.13
2022-08-16T00:11:05.686Z,10.15
2022-08-16T00:13:33.771Z,10.23
2022-08-16T00:17:00.657Z,9.25
2022-08-16T00:18:58.415Z,9.88
2022-08-16T00:21:25.791Z,8.93
2022-08-16T00:23:56.575Z,8.38
2022-08-16T00:26:35.477Z,8.15
2022-08-16T00:29:06.089Z,8.68
2022-08-16T00:31:58.843Z,8.38
2022-08-16T00:34:22.388Z,8.63
2022-08-16T00:37:09.695Z,8.98
2022-08-16T00:39:37.057Z,7.72
2022-08-16T00:42:10.214Z,8.40
2022-08-16T00:44:37.802Z,8.68
2022-08-16T00:47:08.549Z,8.07
2022-08-16T00:49:39.048Z,9.50
2022-08-16T00:52:29.564Z,9.32
2022-08-16T00:54:58.093Z,8.73
2022-08-16T00:57:25.692Z,9.13
2022-08-16T00:59:58.793Z,8.52
2022-08-16T01:02:31.246Z,9.25
2022-08-16T01:05:11.094Z,9.05
2022-08-16T01:07:50.459Z,9.10
2022-08-16T01:10:19.683Z,9.27
2022-08-16T01:12:47.111Z,10.10
2022-08-16T01:15:15.923Z,9.80
2022-08-16T01:17:44.685Z,9.10
2022-08-16T01:20:24.677Z,10.23
2022-08-16T01:22:59.936Z,9.82
2022-08-16T01:25:34.520Z,9.98
2022-08-16T01:28:05.509Z,9.95
2022-08-16T01:30:33.780Z,10.25
2022-08-16T01:33:14.621Z,9.77
2022-08-16T01:35:44.438Z,9.38
2022-08-16T01:38:19.432Z,10.40
2022-08-16T01:40:48.692Z,10.30
2022-08-16T01:43:16.003Z,10.88
2022-08-16T01:45:43.551Z,10.63
2022-08-16T01:48:20.017Z,10.88
2022-08-16T01:51:08.377Z,11.15
2022-08-16T01:53:35.215Z,11.75
2022-08-16T01:56:04.617Z,11.02
2022-08-16T01:58:31.974Z,12.02
2022-08-16T02:00:59.353Z,11.65
2022-08-16T02:03:26.875Z,11.02
2022-08-16T02:05:54.280Z,10.85
2022-08-16T02:08:33.924Z,10.57
2022-08-16T02:11:02.290Z,9.73
2022-08-16T02:13:32.774Z,10.57
2022-08-16T02:16:00.387Z,11.00
2022-08-16T02:18:28.746Z,9.88
2022-08-16T02:20:57.474Z,10.95
2022-08-16T02:23:26.998Z,10.40
2022-08-16T02:25:57.115Z,10.27
2022-08-16T02:28:27.148Z,10.32
2022-08-16T02:30:56.419Z,9.95
2022-08-16T02:33:24.761Z,10.70
2022-08-16T02:36:14.317Z,11.27
2022-08-16T02:38:59.008Z,10.60
2022-08-16T02:41:26.343Z,10.85
2022-08-16T02:43:53.888Z,9.70
2022-08-16T02:46:30.010Z,10.32
2022-08-16T02:49:01.861Z,11.02
2022-08-16T02:51:29.341Z,10.88
2022-08-16T02:53:58.730Z,11.07
2022-08-16T02:56:26.084Z,10.93
2022-08-16T02:58:59.866Z,11.07
2022-08-16T03:01:37.225Z,10.68
2022-08-16T03:04:40.101Z,10.80
2022-08-16T03:06:56.813Z,11.93
2022-08-16T03:09:24.771Z,11.80
2022-08-16T03:11:52.245Z,10.90
2022-08-16T03:14:21.291Z,11.27
2022-08-16T03:16:59.237Z,10.77
2022-08-16T03:19:48.446Z,11.93
2022-08-16T03:22:19.113Z,11.00
2022-08-16T03:24:55.243Z,10.88
2022-08-16T03:27:25.158Z,10.85
2022-08-16T03:29:58.491Z,11.23
2022-08-16T03:32:27.175Z,10.85
2022-08-16T03:34:54.630Z,11.80
2022-08-16T03:37:21.964Z,11.35
2022-08-16T03:39:49.294Z,10.50
2022-08-16T03:42:24.350Z,10.85
2022-08-16T03:44:51.698Z,10.77
2022-08-16T03:47:34.339Z,11.57
2022-08-16T03:50:02.987Z,11.23
2022-08-16T03:52:31.548Z,10.82
2022-08-16T03:54:59.721Z,10.23
2022-08-16T03:57:32.069Z,11.00
2022-08-16T04:00:12.139Z,11.35
2022-08-16T04:03:02.664Z,10.55
2022-08-16T04:05:32.754Z,11.32
2022-08-16T04:08:00.105Z,10.80
2022-08-16T04:10:47.389Z,10.48
2022-08-16T04:13:20.202Z,10.65
2022-08-16T04:16:06.710Z,10.40
2022-08-16T04:18:36.753Z,10.65
2022-08-16T04:21:04.432Z,10.20
2022-08-16T04:23:31.742Z,12.43
2022-08-16T04:26:01.991Z,12.73
2022-08-16T04:28:53.288Z,11.02
2022-08-16T04:31:17.093Z,12.95
2022-08-16T04:33:50.746Z,12.93
2022-08-16T04:36:19.810Z,13.25
2022-08-16T04:38:49.991Z,13.18
2022-08-16T04:41:17.642Z,12.65
2022-08-16T04:43:45.066Z,13.43
2022-08-16T04:47:00.063Z,13.15
2022-08-16T04:49:07.715Z,14.77
2022-08-16T04:51:36.113Z,13.93
2022-08-16T04:54:03.848Z,13.05
2022-08-16T04:56:31.169Z,12.93
2022-08-16T04:58:58.604Z,13.40
2022-08-16T05:01:56.109Z,14.82
2022-08-16T05:04:19.758Z,14.45
2022-08-16T05:06:47.534Z,15.07
2022-08-16T05:09:16.370Z,14.50
2022-08-16T05:11:43.875Z,15.15
2022-08-16T05:14:11.210Z,14.82
2022-08-16T05:16:47.828Z,15.30
2022-08-16T05:19:20.881Z,15.95
2022-08-16T05:21:48.260Z,15.60
2022-08-16T05:24:22.188Z,14.52
2022-08-16T05:26:52.241Z,14.85
2022-08-16T05:29:20.592Z,14.88
2022-08-16T05:31:53.286Z,15.15
2022-08-16T05:34:22.713Z,16.00
2022-08-16T05:36:51.345Z,15.13
2022-08-16T05:39:18.917Z,15.02
2022-08-16T05:41:47.952Z,16.35
2022-08-16T05:44:23.711Z,16.60
2022-08-16T05:46:52.477Z,16.00
2022-08-16T05:49:22.555Z,16.33
2022-08-16T05:51:52.198Z,15.85
2022-08-16T05:54:20.241Z,16.98
2022-08-16T05:56:52.694Z,16.17
2022-08-16T05:59:20.042Z,15.23
2022-08-16T06:01:50.396Z,16.98
2022-08-16T06:04:35.317Z,16.13
2022-08-16T06:07:07.278Z,16.85
2022-08-16T06:09:42.714Z,16.67
2022-08-16T06:12:11.405Z,15.68
2022-08-16T06:14:40.104Z,16.38
2022-08-16T06:17:07.594Z,16.17
2022-08-16T06:19:35.745Z,16.83
2022-08-16T06:22:03.246Z,17.65
2022-08-16T06:24:54.540Z,16.45
2022-08-16T06:27:19.291Z,17.38
2022-08-16T06:29:49.965Z,18.70
2022-08-16T06:32:26.994Z,18.25
2022-08-16T06:35:02.716Z,18.55
2022-08-16T06:37:37.112Z,18.50
2022-08-16T06:40:12.673Z,18.50
2022-08-16T06:42:47.715Z,19.50
2022-08-16T06:45:15.795Z,19.48
2022-08-16T06:47:53.610Z,20.42
2022-08-16T06:50:29.633Z,20.75
2022-08-16T06:53:00.342Z,20.10
2022-08-16T06:55:33.759Z,20.52
2022-08-16T06:58:02.208Z,20.38
2022-08-16T07:00:37.769Z,21.00
2022-08-16T07:03:26.909Z,20.67
2022-08-16T07:05:52.948Z,19.65
2022-08-16T07:08:21.313Z,20.35
2022-08-16T07:10:50.014Z,17.65
2022-08-16T07:13:26.593Z,19.55
2022-08-16T07:16:05.609Z,20.27
2022-08-16T07:18:33.091Z,17.48
2022-08-16T07:21:02.227Z,19.70
2022-08-16T07:23:37.448Z,18.92
2022-08-16T07:26:08.024Z,18.92
2022-08-16T07:28:35.552Z,18.50
2022-08-16T07:31:03.291Z,17.95
2022-08-16T07:33:51.725Z,18.75
2022-08-16T07:36:21.908Z,17.45
2022-08-16T07:38:50.032Z,17.73
2022-08-16T07:41:18.831Z,17.88
2022-08-16T07:43:47.587Z,17.27
2022-08-16T07:46:37.541Z,18.27
2022-08-16T07:49:03.056Z,17.63
2022-08-16T07:51:33.038Z,18.00
2022-08-16T07:54:09.544Z,17.45
2022-08-16T07:56:39.301Z,18.45
2022-08-16T07:59:06.632Z,17.55
2022-08-16T08:01:34.658Z,16.98
2022-08-16T08:04:02.795Z,16.37
2022-08-16T08:06:32.162Z,16.52
2022-08-16T08:08:59.642Z,17.20
2022-08-16T08:11:28.400Z,16.15
2022-08-16T08:14:03.774Z,18.42
2022-08-16T08:16:31.491Z,17.38
2022-08-16T08:19:00.977Z,15.45
2022-08-16T08:22:01.021Z,18.45
2022-08-16T08:24:17.587Z,17.92
2022-08-16T08:26:50.157Z,14.52
2022-08-16T08:29:23.133Z,15.70
2022-08-16T08:31:52.167Z,17.90
2022-08-16T08:34:21.117Z,16.90
2022-08-16T08:36:50.095Z,15.55
2022-08-16T08:39:21.653Z,14.88
2022-08-16T08:41:49.351Z,17.27
2022-08-16T08:44:28.407Z,17.67
2022-08-16T08:47:00.014Z,18.02
2022-08-16T08:49:46.416Z,16.50
2022-08-16T08:52:34.297Z,15.07
2022-08-16T08:55:10.518Z,14.02
2022-08-16T08:57:38.666Z,13.93
2022-08-16T09:00:13.279Z,13.98
2022-08-16T09:02:43.332Z,14.40
2022-08-16T09:05:15.274Z,15.10
2022-08-16T09:08:00.902Z,14.50
2022-08-16T09:10:29.531Z,14.93
2022-08-16T09:12:57.036Z,14.05
2022-08-16T09:15:24.382Z,15.23
2022-08-16T09:17:56.842Z,12.82
2022-08-16T09:20:25.569Z,11.70
2022-08-16T09:22:53.198Z,14.27
2022-08-16T09:25:26.141Z,12.25
2022-08-16T09:28:02.176Z,12.23
2022-08-16T09:30:34.162Z,13.65
2022-08-16T09:33:11.763Z,12.75
2022-08-16T09:35:42.617Z,12.10
2022-08-16T09:38:12.184Z,11.63
2022-08-16T09:40:42.782Z,11.63
2022-08-16T09:43:21.020Z,12.38
2022-08-16T09:45:58.592Z,12.13
2022-08-16T09:48:36.828Z,12.18
2022-08-16T09:51:12.140Z,11.80
2022-08-16T09:53:39.514Z,10.15
2022-08-16T09:56:11.469Z,11.40
2022-08-16T09:59:05.293Z,12.40
2022-08-16T10:01:26.306Z,11.75
2022-08-16T10:04:01.752Z,11.15
2022-08-16T10:06:33.964Z,9.52
2022-08-16T10:09:05.571Z,9.65
2022-08-16T10:11:51.540Z,8.48
2022-08-16T10:14:19.934Z,9.52
2022-08-16T10:17:00.115Z,8.13
2022-08-16T10:19:31.803Z,8.20
2022-08-16T10:21:59.725Z,9.18
2022-08-16T10:24:32.708Z,9.35
2022-08-16T10:27:21.652Z,8.88
2022-08-16T10:30:00.229Z,7.18
2022-08-16T10:32:30.645Z,8.63
2022-08-16T10:35:02.093Z,7.60
2022-08-16T10:37:36.007Z,8.25
2022-08-16T10:40:29.286Z,7.60
2022-08-16T10:42:58.980Z,7.60
2022-08-16T10:45:27.344Z,7.00
2022-08-16T10:48:02.970Z,6.72
2022-08-16T10:50:32.725Z,7.20
2022-08-16T10:53:00.481Z,7.20
2022-08-16T10:55:45.207Z,6.85
2022-08-16T10:58:14.129Z,7.53
2022-08-16T11:00:45.978Z,7.20
2022-08-16T11:06:03.427Z,6.15
2022-08-16T11:08:35.422Z,6.80
2022-08-16T11:11:06.404Z,6.50
2022-08-16T11:19:16.513Z,6.57
2022-08-16T11:24:41.350Z,6.30
2022-08-16T11:27:20.476Z,7.05
2022-08-16T11:29:49.139Z,6.85
2022-08-16T11:32:20.378Z,6.47
2022-08-16T11:35:13.777Z,6.60
2022-08-16T11:40:33.055Z,6.55
2022-08-16T11:43:01.271Z,6.50
2022-08-16T11:45:33.459Z,6.85
2022-08-16T11:48:01.469Z,6.50
2022-08-16T11:50:28.812Z,6.63
2022-08-16T11:52:57.468Z,5.82
2022-08-16T11:55:24.795Z,6.32
2022-08-16T11:57:57.347Z,5.65
2022-08-16T12:00:33.786Z,5.97
2022-08-16T12:03:12.310Z,5.85
2022-08-16T12:05:40.358Z,6.45
2022-08-16T12:08:10.543Z,5.97
2022-08-16T12:10:40.004Z,6.15
2022-08-16T12:13:07.347Z,6.18
2022-08-16T12:15:37.924Z,5.85
2022-08-16T12:18:05.371Z,6.28
2022-08-16T12:20:35.315Z,5.65
2022-08-16T12:23:02.682Z,5.45
2022-08-16T12:25:31.590Z,5.38
2022-08-16T12:27:59.300Z,6.55
2022-08-16T12:30:37.746Z,6.28
2022-08-16T12:33:06.838Z,5.63
2022-08-16T12:35:34.375Z,5.78
2022-08-16T12:38:37.995Z,5.85
2022-08-16T12:40:50.852Z,5.70
2022-08-16T12:43:23.543Z,5.22
2022-08-16T12:45:51.992Z,5.13
2022-08-16T12:48:38.924Z,5.70
2022-08-16T12:51:10.972Z,5.68
2022-08-16T12:53:41.297Z,5.50
2022-08-16T12:56:11.335Z,5.32
2022-08-16T12:58:48.460Z,5.70
2022-08-16T13:01:18.252Z,5.72
2022-08-16T13:03:46.105Z,5.60
2022-08-16T13:06:13.491Z,5.90
2022-08-16T13:08:47.355Z,5.70
2022-08-16T13:11:17.702Z,5.35
2022-08-16T13:13:45.211Z,6.40
2022-08-16T13:16:20.117Z,6.03
2022-08-16T13:18:52.697Z,6.32
2022-08-16T13:21:23.475Z,6.85
2022-08-16T13:23:51.293Z,6.22
2022-08-16T13:26:24.040Z,6.40
2022-08-16T13:28:51.647Z,6.35
2022-08-16T13:31:19.011Z,5.80
2022-08-16T13:33:46.384Z,6.10
2022-08-16T13:36:32.130Z,6.00
2022-08-16T13:39:01.392Z,6.00
2022-08-16T13:41:30.585Z,6.30
2022-08-16T13:43:59.372Z,5.93
2022-08-16T13:46:27.089Z,5.93
2022-08-16T13:48:55.666Z,5.90
2022-08-16T13:51:23.824Z,6.28
2022-08-16T13:53:59.163Z,6.00
2022-08-16T13:56:34.465Z,5.57
2022-08-16T13:59:14.237Z,6.38
2022-08-16T14:01:47.408Z,5.95
2022-08-16T14:04:26.608Z,5.90
2022-08-16T14:06:54.631Z,6.20
2022-08-16T14:09:22.174Z,5.32
2022-08-16T14:11:53.359Z,5.80
2022-08-16T14:14:28.785Z,5.63
2022-08-16T14:16:57.332Z,5.90
2022-08-16T14:19:24.666Z,5.80
2022-08-16T14:21:56.516Z,5.80
2022-08-16T14:24:41.191Z,5.60
2022-08-16T14:27:13.133Z,5.78
2022-08-16T14:29:44.138Z,6.22
2022-08-16T14:32:13.159Z,6.32
2022-08-16T14:34:54.298Z,5.88
2022-08-16T14:37:23.262Z,6.07
2022-08-16T14:39:50.671Z,5.82
2022-08-16T14:42:19.682Z,5.85
2022-08-16T14:44:48.499Z,6.40
2022-08-16T14:47:17.353Z,6.57
2022-08-16T14:49:44.774Z,6.05
2022-08-16T14:52:13.227Z,6.25
2022-08-16T14:54:42.828Z,6.00
2022-08-16T14:57:12.451Z,6.05
2022-08-16T14:59:41.291Z,6.22
2022-08-16T15:02:27.669Z,6.25
2022-08-16T15:05:04.334Z,6.03
2022-08-16T15:07:35.019Z,6.07
2022-08-16T15:10:03.609Z,6.57
2022-08-16T15:12:34.017Z,6.07
2022-08-16T15:15:12.477Z,6.28
2022-08-16T15:17:42.454Z,6.00
2022-08-16T15:20:22.145Z,6.22
2022-08-16T15:22:49.986Z,6.50
2022-08-16T15:25:19.286Z,6.63
2022-08-16T15:27:47.040Z,6.13
2022-08-16T15:30:57.711Z,7.05
2022-08-16T15:33:14.976Z,6.50
2022-08-16T15:35:42.492Z,6.10
2022-08-16T15:38:10.109Z,6.47
2022-08-16T15:40:57.798Z,6.32
2022-08-16T15:43:33.792Z,6.63
2022-08-16T15:46:35.560Z,6.45
2022-08-16T15:49:14.074Z,6.60
2022-08-16T15:51:43.577Z,6.53
2022-08-16T15:54:28.931Z,6.38
2022-08-16T15:57:00.334Z,6.38
2022-08-16T15:59:48.203Z,6.78
2022-08-16T16:02:16.181Z,7.10
2022-08-16T16:04:53.849Z,6.68
2022-08-16T16:07:21.273Z,6.50
2022-08-16T16:09:49.698Z,6.68
2022-08-16T16:12:50.906Z,6.45
2022-08-16T16:15:08.153Z,5.93
2022-08-16T16:17:35.986Z,6.32
2022-08-16T16:20:04.756Z,5.97
2022-08-16T16:22:33.304Z,6.40
2022-08-16T16:25:00.735Z,6.00
2022-08-16T16:27:28.272Z,5.93
2022-08-16T16:29:57.993Z,5.78
2022-08-16T16:32:34.254Z,5.57
2022-08-16T16:35:02.114Z,6.10
2022-08-16T16:37:31.951Z,5.95
2022-08-16T16:39:59.701Z,6.22
2022-08-16T16:42:29.967Z,5.80
2022-08-16T16:45:01.164Z,5.65
2022-08-16T16:47:29.564Z,5.95
2022-08-16T16:49:57.057Z,5.82
2022-08-16T16:52:43.629Z,5.95
2022-08-16T16:55:14.715Z,5.22
2022-08-16T16:57:59.840Z,6.22
2022-08-16T17:00:37.750Z,5.50
2022-08-16T17:03:17.120Z,6.15
2022-08-16T17:05:56.942Z,5.55
2022-08-16T17:08:30.179Z,6.20
2022-08-16T17:10:58.876Z,5.80
2022-08-16T17:13:27.243Z,6.00
2022-08-16T17:15:54.924Z,5.80
2022-08-16T17:21:09.673Z,5.63
2022-08-16T17:23:58.608Z,5.97
2022-08-16T17:26:29.804Z,5.40
2022-08-16T17:31:45.414Z,5.97
2022-08-16T17:34:28.822Z,5.68
2022-08-16T17:36:58.818Z,5.47
2022-08-16T17:39:28.306Z,5.43
2022-08-16T17:39:28.785Z,5.70
2022-08-16T17:39:29.511Z,5.82
2022-08-16T17:41:58.822Z,5.75
2022-08-16T17:44:26.176Z,5.30
2022-08-16T17:46:53.517Z,5.63
2022-08-16T17:49:20.939Z,5.25
2022-08-16T17:51:48.424Z,5.55
2022-08-16T17:54:20.630Z,5.68
2022-08-16T17:57:00.464Z,5.55
2022-08-16T17:59:28.427Z,6.18
2022-08-16T18:01:56.019Z,5.60
2022-08-16T18:04:49.868Z,5.38
2022-08-16T18:07:11.363Z,5.50
2022-08-16T18:09:41.088Z,5.20
2022-08-16T18:12:44.803Z,5.35
2022-08-16T18:15:02.874Z,5.70
2022-08-16T18:17:30.227Z,5.07
2022-08-16T18:19:57.545Z,5.70
2022-08-16T18:22:30.185Z,5.60
2022-08-16T18:24:57.991Z,5.43
2022-08-16T18:27:28.300Z,5.88
2022-08-16T18:29:55.687Z,5.72
2022-08-16T18:32:24.912Z,6.20
2022-08-16T18:34:52.691Z,7.38
2022-08-16T18:37:21.690Z,7.70
2022-08-16T18:39:49.059Z,7.65
2022-08-16T18:42:16.420Z,7.28
2022-08-16T18:44:45.114Z,8.02
2022-08-16T18:47:12.452Z,8.20
2022-08-16T18:49:39.812Z,8.07
2022-08-16T18:52:07.627Z,8.52
2022-08-16T18:55:01.818Z,8.25
2022-08-16T18:57:22.620Z,8.85
2022-08-16T18:59:51.308Z,9.25
2022-08-16T19:02:57.117Z,9.93
2022-08-16T19:05:11.509Z,10.13
2022-08-16T19:07:38.874Z,10.77
2022-08-16T19:10:06.708Z,10.73
2022-08-16T19:12:38.540Z,10.63
2022-08-16T19:15:12.166Z,11.27
2022-08-16T19:17:41.647Z,12.15
2022-08-16T19:20:10.965Z,11.77
2022-08-16T19:22:59.921Z,11.73
2022-08-16T19:25:39.425Z,12.65
2022-08-16T19:28:21.766Z,11.98
2022-08-16T19:31:02.550Z,13.27
2022-08-16T19:33:29.927Z,13.07
2022-08-16T19:35:57.269Z,12.60
2022-08-16T19:38:24.632Z,13.10
2022-08-16T19:40:51.959Z,12.77
2022-08-16T19:43:21.771Z,12.85
2022-08-16T19:45:49.154Z,12.57
2022-08-16T19:48:17.874Z,13.10
2022-08-16T19:50:45.233Z,13.10
2022-08-16T19:53:18.646Z,12.60
2022-08-16T19:55:47.414Z,11.80
2022-08-16T19:58:15.288Z,11.48
2022-08-16T20:00:42.993Z,11.98
2022-08-16T20:03:11.853Z,11.75
2022-08-16T20:05:40.987Z,12.13
2022-08-16T20:08:08.505Z,12.57
2022-08-16T20:10:35.811Z,11.50
2022-08-16T20:13:03.425Z,12.57
2022-08-16T20:15:31.409Z,11.43
2022-08-16T20:17:58.851Z,11.90
2022-08-16T20:20:27.155Z,12.35
2022-08-16T20:22:55.912Z,13.02
2022-08-16T20:25:28.010Z,13.60
2022-08-16T20:27:55.905Z,13.40
2022-08-16T20:30:23.318Z,13.30
2022-08-16T20:32:50.923Z,11.50
2022-08-16T20:35:18.943Z,12.38
2022-08-16T20:37:47.398Z,14.30
2022-08-16T20:40:33.710Z,14.55
2022-08-16T20:43:03.224Z,13.35
2022-08-16T20:45:30.680Z,12.95
2022-08-16T20:47:58.033Z,11.98
2022-08-16T20:50:25.540Z,12.70
2022-08-16T20:52:52.864Z,13.70
2022-08-16T20:55:21.805Z,18.77
2022-08-16T20:57:49.206Z,16.83
2022-08-16T21:00:18.951Z,15.38
2022-08-16T21:02:46.369Z,15.25
2022-08-16T21:05:14.672Z,13.98
2022-08-16T21:07:42.911Z,13.20
2022-08-16T21:10:11.365Z,12.73
2022-08-16T21:12:43.360Z,14.05
2022-08-16T21:15:11.168Z,12.93
2022-08-16T21:17:40.180Z,13.38
2022-08-16T21:20:08.995Z,13.80
2022-08-16T21:22:36.674Z,13.27
2022-08-16T21:25:04.120Z,14.68
2022-08-16T21:27:31.623Z,14.38
2022-08-16T21:30:03.959Z,13.75
2022-08-16T21:32:45.008Z,14.57
2022-08-16T21:35:14.784Z,13.43
2022-08-16T21:37:42.223Z,16.13
2022-08-16T21:40:10.010Z,15.38
2022-08-16T21:42:37.591Z,15.35
2022-08-16T21:45:07.111Z,14.15
2022-08-16T21:47:34.439Z,13.73
2022-08-16T21:50:01.783Z,14.20
2022-08-16T21:52:29.352Z,15.60
2022-08-16T21:54:56.898Z,14.95
2022-08-16T21:57:24.274Z,14.25
2022-08-16T21:59:52.310Z,13.23
2022-08-16T22:02:21.588Z,13.73
2022-08-16T22:04:49.135Z,13.10
2022-08-16T22:07:16.821Z,13.25
2022-08-16T22:09:44.162Z,12.90
2022-08-16T22:12:15.473Z,13.85
2022-08-16T22:14:48.878Z,13.27
2022-08-16T22:17:16.345Z,13.20
2022-08-16T22:19:45.044Z,12.52
2022-08-16T22:22:12.450Z,13.10
2022-08-16T22:24:39.782Z,12.57
2022-08-16T22:27:07.252Z,13.55
2022-08-16T22:29:34.591Z,12.13
2022-08-16T22:32:02.311Z,13.32
2022-08-16T22:34:29.694Z,12.75
2022-08-16T22:36:58.357Z,13.18
2022-08-16T22:39:25.754Z,12.68
2022-08-16T22:41:53.136Z,12.95
2022-08-16T22:44:20.491Z,13.38
2022-08-16T22:46:47.890Z,13.10
2022-08-16T22:49:15.288Z,12.68
2022-08-16T22:51:42.847Z,11.10
2022-08-16T22:54:44.415Z,12.65
2022-08-16T22:56:58.891Z,13.18
2022-08-16T22:59:26.247Z,13.70
2022-08-16T23:01:53.788Z,13.27
2022-08-16T23:04:21.264Z,12.52
2022-08-16T23:06:49.048Z,12.25
2022-08-16T23:09:18.257Z,11.50
2022-08-16T23:11:45.703Z,12.85
2022-08-16T23:14:13.034Z,11.57
2022-08-16T23:16:40.374Z,11.57
2022-08-16T23:19:08.325Z,10.77
2022-08-16T23:21:36.924Z,10.93
2022-08-16T23:24:04.521Z,10.55
2022-08-16T23:26:45.090Z,11.30
2022-08-16T23:29:22.259Z,10.60
2022-08-16T23:31:53.484Z,10.15
2022-08-16T23:34:21.057Z,10.43
2022-08-16T23:36:48.391Z,10.32
2022-08-16T23:39:15.726Z,10.00
2022-08-16T23:41:44.608Z,11.05
2022-08-16T23:44:56.519Z,10.80
2022-08-16T23:46:59.331Z,11.48
2022-08-16T23:50:00.006Z,11.07
2022-08-16T23:52:13.984Z,10.93
2022-08-16T23:54:41.311Z,10.93
2022-08-16T23:57:09.967Z,10.93
2022-08-16T23:59:48.622Z,11.13
